createdAt,value
2022-10-10T00:01:05.856Z,63.42
2022-10-10T00:04:09.741Z,63.49
2022-10-10T00:07:12.228Z,63.45
2022-10-10T00:10:14.693Z,63.11
2022-10-10T00:13:17.239Z,62.49
2022-10-10T00:16:20.295Z,62.14
2022-10-10T00:19:24.089Z,62.15
2022-10-10T00:22:26.628Z,62.29
2022-10-10T00:25:29.159Z,62.06
2022-10-10T00:28:31.810Z,61.85
2022-10-10T00:31:34.294Z,62.42
2022-10-10T00:34:38.072Z,61.92
2022-10-10T00:37:40.520Z,62.00
2022-10-10T00:40:47.589Z,62.40
2022-10-10T00:44:07.667Z,62.25
2022-10-10T00:47:10.570Z,61.45
2022-10-10T00:50:14.445Z,61.31
2022-10-10T00:53:20.672Z,61.36
2022-10-10T00:56:26.990Z,61.53
2022-10-10T00:59:35.129Z,61.95
2022-10-10T01:02:37.817Z,61.40
2022-10-10T01:05:42.910Z,61.28
2022-10-10T01:08:45.515Z,61.65
2022-10-10T01:11:56.097Z,61.88
2022-10-10T01:15:06.300Z,61.25
2022-10-10T01:18:18.636Z,61.19
2022-10-10T01:21:32.826Z,61.36
2022-10-10T01:24:58.825Z,61.25
2022-10-10T01:28:04.088Z,61.54
2022-10-10T01:31:10.791Z,61.81
2022-10-10T01:34:22.938Z,61.66
2022-10-10T01:37:35.601Z,61.50
2022-10-10T01:40:45.260Z,62.09
2022-10-10T01:43:47.721Z,61.35
2022-10-10T01:46:51.502Z,62.06
2022-10-10T01:49:59.259Z,61.74
2022-10-10T01:53:09.948Z,61.40
2022-10-10T01:56:24.576Z,61.05
2022-10-10T01:59:40.344Z,61.14
2022-10-10T02:02:52.159Z,61.36
2022-10-10T02:05:57.683Z,60.49
2022-10-10T02:09:06.366Z,60.39
2022-10-10T02:12:11.950Z,60.47
2022-10-10T02:15:17.738Z,59.84
2022-10-10T02:18:28.242Z,59.27
2022-10-10T02:21:31.705Z,59.56
2022-10-10T02:24:34.203Z,58.92
2022-10-10T02:27:44.071Z,58.55
2022-10-10T02:30:50.154Z,58.85
2022-10-10T02:33:59.401Z,58.21
2022-10-10T02:37:04.864Z,58.61
2022-10-10T02:40:09.906Z,58.70
2022-10-10T02:43:14.856Z,59.03
2022-10-10T02:46:18.123Z,58.04
2022-10-10T02:49:26.804Z,57.95
2022-10-10T02:52:29.313Z,58.29
2022-10-10T02:55:31.827Z,58.34
2022-10-10T02:58:34.348Z,57.97
2022-10-10T03:01:36.826Z,57.07
2022-10-10T03:04:42.059Z,58.00
2022-10-10T03:07:44.520Z,58.36
2022-10-10T03:10:55.262Z,58.20
2022-10-10T03:13:57.703Z,58.16
2022-10-10T03:17:00.581Z,58.38
2022-10-10T03:20:05.425Z,58.64
2022-10-10T03:23:07.880Z,58.17
2022-10-10T03:26:10.557Z,58.62
2022-10-10T03:29:13.111Z,58.64
2022-10-10T03:32:15.580Z,58.27
2022-10-10T03:35:19.412Z,58.12
2022-10-10T03:38:21.859Z,58.03
2022-10-10T03:41:24.335Z,58.45
2022-10-10T03:44:26.790Z,58.06
2022-10-10T03:47:29.247Z,57.89
2022-10-10T03:50:33.062Z,57.47
2022-10-10T03:53:35.510Z,57.17
2022-10-10T03:56:37.984Z,57.67
2022-10-10T03:59:40.453Z,57.74
2022-10-10T04:02:42.963Z,57.81
2022-10-10T04:05:46.746Z,57.57
2022-10-10T04:08:49.338Z,57.09
2022-10-10T04:11:51.799Z,57.31
2022-10-10T04:14:54.262Z,57.74
2022-10-10T04:17:56.733Z,57.28
2022-10-10T04:21:02.826Z,57.63
2022-10-10T04:24:05.630Z,57.26
2022-10-10T04:27:08.093Z,57.68
2022-10-10T04:30:12.099Z,57.96
2022-10-10T04:33:14.573Z,57.50
2022-10-10T04:36:18.411Z,57.70
2022-10-10T04:39:21.045Z,57.29
2022-10-10T04:42:23.660Z,57.21
2022-10-10T04:45:26.657Z,57.31
2022-10-10T04:48:29.186Z,57.63
2022-10-10T04:51:32.987Z,58.18
2022-10-10T04:54:35.491Z,57.91
2022-10-10T04:57:37.968Z,57.84
2022-10-10T05:00:41.079Z,58.12
2022-10-10T05:03:43.969Z,58.21
2022-10-10T05:06:47.756Z,58.10
2022-10-10T05:09:50.456Z,58.22
2022-10-10T05:12:53.326Z,57.62
2022-10-10T05:15:56.103Z,56.91
2022-10-10T05:18:58.722Z,57.17
2022-10-10T05:22:02.567Z,57.40
2022-10-10T05:25:05.673Z,56.76
2022-10-10T05:28:08.203Z,56.98
2022-10-10T05:31:10.868Z,58.50
2022-10-10T05:34:14.403Z,58.12
2022-10-10T05:37:18.285Z,57.84
2022-10-10T05:40:20.799Z,59.08
2022-10-10T05:43:23.294Z,57.74
2022-10-10T05:46:27.446Z,57.58
2022-10-10T05:49:29.931Z,57.12
2022-10-10T05:52:35.225Z,56.99
2022-10-10T05:55:37.771Z,56.80
2022-10-10T05:58:40.234Z,53.79
2022-10-10T06:01:42.738Z,50.96
2022-10-10T06:04:45.323Z,50.26
2022-10-10T06:08:09.259Z,49.40
2022-10-10T06:11:12.144Z,48.43
2022-10-10T06:14:14.686Z,47.64
2022-10-10T06:17:17.393Z,45.95
2022-10-10T06:20:19.915Z,46.05
2022-10-10T06:23:23.762Z,46.24
2022-10-10T06:26:26.265Z,46.92
2022-10-10T06:29:29.019Z,48.02
2022-10-10T06:32:31.489Z,47.60
2022-10-10T06:35:34.092Z,46.31
2022-10-10T06:38:39.808Z,46.82
2022-10-10T06:41:42.260Z,46.86
2022-10-10T06:44:44.779Z,47.95
2022-10-10T06:47:47.233Z,48.70
2022-10-10T06:51:00.236Z,47.94
2022-10-10T06:54:04.085Z,46.78
2022-10-10T06:57:06.544Z,46.57
2022-10-10T07:00:09.719Z,46.14
2022-10-10T07:03:13.657Z,45.38
2022-10-10T07:06:18.001Z,45.32
2022-10-10T07:09:21.816Z,45.06
2022-10-10T07:12:24.272Z,44.81
2022-10-10T07:15:26.728Z,45.16
2022-10-10T07:18:29.662Z,45.63
2022-10-10T07:21:32.261Z,45.48
2022-10-10T07:24:37.000Z,45.36
2022-10-10T07:27:39.476Z,45.05
2022-10-10T07:30:43.814Z,46.40
2022-10-10T07:33:50.585Z,47.07
2022-10-10T07:36:53.571Z,46.44
2022-10-10T07:39:57.402Z,46.80
2022-10-10T07:43:00.376Z,47.03
2022-10-10T07:46:04.152Z,46.65
2022-10-10T07:49:08.615Z,45.12
2022-10-10T07:52:11.054Z,44.54
2022-10-10T07:55:14.860Z,43.92
2022-10-10T07:58:17.767Z,43.68
2022-10-10T08:01:20.482Z,43.13
2022-10-10T08:04:23.067Z,43.42
2022-10-10T08:07:25.681Z,43.16
2022-10-10T08:10:29.541Z,42.51
2022-10-10T08:13:32.041Z,42.79
2022-10-10T08:16:34.508Z,41.94
2022-10-10T08:19:37.064Z,41.43
2022-10-10T08:22:39.515Z,42.12
2022-10-10T08:25:43.309Z,41.55
2022-10-10T08:28:45.982Z,41.19
2022-10-10T08:31:48.512Z,41.02
2022-10-10T08:34:50.980Z,39.55
2022-10-10T08:37:53.832Z,40.25
2022-10-10T08:40:58.628Z,39.47
2022-10-10T08:44:04.524Z,38.36
2022-10-10T08:47:13.181Z,39.29
2022-10-10T08:50:19.742Z,38.50
2022-10-10T08:53:25.329Z,38.15
2022-10-10T08:56:32.234Z,37.96
2022-10-10T08:59:36.628Z,38.27
2022-10-10T09:02:57.771Z,37.80
2022-10-10T09:06:20.291Z,38.77
2022-10-10T09:09:31.003Z,40.21
2022-10-10T09:12:44.731Z,41.13
2022-10-10T09:15:55.309Z,41.95
2022-10-10T09:19:07.896Z,41.85
2022-10-10T09:22:15.546Z,42.10
2022-10-10T09:25:23.274Z,41.74
2022-10-10T09:28:38.815Z,41.34
2022-10-10T09:31:45.315Z,39.79
2022-10-10T09:34:52.452Z,38.74
2022-10-10T09:38:02.813Z,38.01
2022-10-10T09:41:12.464Z,39.31
2022-10-10T09:44:18.780Z,39.62
2022-10-10T09:47:22.187Z,38.78
2022-10-10T09:50:25.768Z,38.25
2022-10-10T09:53:28.264Z,37.78
2022-10-10T09:56:33.985Z,37.49
2022-10-10T09:59:40.655Z,37.46
2022-10-10T10:02:43.212Z,37.39
2022-10-10T10:05:49.957Z,37.71
2022-10-10T10:08:54.041Z,38.77
2022-10-10T10:11:59.312Z,40.27
2022-10-10T10:15:06.135Z,38.78
2022-10-10T10:18:13.051Z,37.62
2022-10-10T10:21:19.686Z,36.99
2022-10-10T10:24:24.437Z,36.25
2022-10-10T10:27:29.468Z,36.70
2022-10-10T10:30:35.039Z,35.86
2022-10-10T10:33:47.268Z,36.09
2022-10-10T10:36:57.689Z,36.10
2022-10-10T10:40:23.741Z,35.31
2022-10-10T10:43:41.580Z,35.30
2022-10-10T10:46:56.394Z,36.43
2022-10-10T10:50:17.625Z,37.09
2022-10-10T10:53:29.680Z,36.68
2022-10-10T10:56:37.003Z,37.01
2022-10-10T11:00:17.002Z,36.05
2022-10-10T11:05:17.384Z,35.60
2022-10-10T11:07:20.461Z,35.42
2022-10-10T11:10:31.456Z,36.00
2022-10-10T11:13:40.671Z,36.33
2022-10-10T11:16:49.199Z,35.90
2022-10-10T11:19:59.100Z,36.52
2022-10-10T11:23:09.040Z,36.74
2022-10-10T11:26:19.210Z,37.43
2022-10-10T11:29:25.542Z,37.44
2022-10-10T11:32:33.364Z,37.21
2022-10-10T11:35:41.679Z,36.71
2022-10-10T11:38:50.360Z,36.65
2022-10-10T11:41:57.259Z,35.89
2022-10-10T11:45:05.289Z,36.03
2022-10-10T11:48:20.645Z,37.12
2022-10-10T11:51:34.188Z,36.61
2022-10-10T11:54:43.849Z,36.58
2022-10-10T11:57:51.038Z,36.78
2022-10-10T12:00:57.871Z,36.93
2022-10-10T12:04:00.360Z,37.13
2022-10-10T12:07:07.032Z,36.69
2022-10-10T12:10:20.828Z,36.67
2022-10-10T12:13:31.080Z,35.71
2022-10-10T12:16:37.310Z,35.25
2022-10-10T12:19:39.860Z,34.85
2022-10-10T12:22:44.823Z,35.08
2022-10-10T12:25:47.975Z,35.85
2022-10-10T12:29:04.985Z,36.03
2022-10-10T12:32:28.140Z,35.90
2022-10-10T12:35:36.828Z,35.14
2022-10-10T12:38:42.515Z,35.45
2022-10-10T12:41:59.941Z,34.54
2022-10-10T12:45:02.914Z,35.34
2022-10-10T12:48:07.399Z,35.29
2022-10-10T12:51:22.040Z,34.48
2022-10-10T12:54:30.408Z,34.02
2022-10-10T12:57:35.674Z,34.36
2022-10-10T13:00:40.510Z,35.07
2022-10-10T13:03:46.672Z,35.68
2022-10-10T13:06:53.405Z,35.84
2022-10-10T13:10:06.576Z,35.60
2022-10-10T13:13:18.508Z,35.47
2022-10-10T13:16:23.398Z,35.57
2022-10-10T13:19:26.456Z,35.42
2022-10-10T13:22:31.139Z,41.58
2022-10-10T13:25:38.591Z,38.05
2022-10-10T13:28:47.147Z,37.48
2022-10-10T13:31:50.070Z,37.19
2022-10-10T13:34:55.220Z,39.31
2022-10-10T13:38:00.005Z,38.53
2022-10-10T13:41:05.962Z,37.26
2022-10-10T13:44:14.834Z,37.39
2022-10-10T13:47:52.912Z,36.96
2022-10-10T13:51:05.080Z,36.81
2022-10-10T13:54:44.557Z,36.99
2022-10-10T13:57:47.852Z,37.01
2022-10-10T14:00:56.989Z,37.18
2022-10-10T14:04:03.987Z,37.78
2022-10-10T14:07:12.451Z,36.89
2022-10-10T14:10:21.320Z,36.87
2022-10-10T14:13:25.411Z,36.83
2022-10-10T14:16:27.884Z,37.83
2022-10-10T14:19:31.171Z,37.04
2022-10-10T14:22:33.655Z,37.01
2022-10-10T14:25:39.259Z,37.29
2022-10-10T14:28:42.038Z,36.18
2022-10-10T14:31:45.413Z,38.88
2022-10-10T14:34:48.253Z,39.37
2022-10-10T14:37:50.784Z,38.59
2022-10-10T14:40:55.360Z,39.28
2022-10-10T14:43:58.060Z,39.06
2022-10-10T14:47:00.537Z,38.60
2022-10-10T14:50:03.084Z,38.89
2022-10-10T14:53:05.896Z,38.58
2022-10-10T14:56:12.082Z,38.57
2022-10-10T14:59:18.341Z,38.45
2022-10-10T15:02:45.447Z,39.13
2022-10-10T15:05:48.752Z,39.57
2022-10-10T15:08:51.227Z,41.09
2022-10-10T15:11:55.027Z,42.50
2022-10-10T15:14:57.554Z,42.11
2022-10-10T15:18:00.140Z,42.21
2022-10-10T15:21:02.815Z,42.36
2022-10-10T15:24:06.166Z,43.93
2022-10-10T15:27:10.179Z,44.41
2022-10-10T15:30:13.151Z,44.42
2022-10-10T15:33:15.809Z,44.27
2022-10-10T15:36:19.345Z,43.75
2022-10-10T15:39:21.957Z,43.89
2022-10-10T15:42:25.797Z,44.65
2022-10-10T15:45:54.411Z,44.73
2022-10-10T15:48:51.050Z,45.45
2022-10-10T15:51:53.525Z,45.37
2022-10-10T15:54:56.004Z,46.05
2022-10-10T15:57:59.847Z,46.59
2022-10-10T16:01:11.229Z,46.99
2022-10-10T16:04:13.803Z,46.65
2022-10-10T16:07:36.455Z,47.20
2022-10-10T16:10:39.520Z,48.64
2022-10-10T16:13:47.630Z,48.93
2022-10-10T16:16:50.091Z,48.75
2022-10-10T16:19:52.901Z,48.70
2022-10-10T16:22:55.414Z,49.33
2022-10-10T16:26:02.864Z,50.00
2022-10-10T16:29:08.607Z,50.26
2022-10-10T16:32:11.081Z,50.74
2022-10-10T16:35:13.577Z,50.69
2022-10-10T16:38:16.114Z,50.21
2022-10-10T16:41:35.603Z,50.67
2022-10-10T16:44:43.590Z,50.95
2022-10-10T16:47:46.075Z,51.14
2022-10-10T16:50:48.564Z,51.69
2022-10-10T16:53:51.373Z,52.16
2022-10-10T16:56:53.872Z,51.90
2022-10-10T16:59:57.659Z,52.61
2022-10-10T17:03:00.155Z,52.98
2022-10-10T17:06:04.111Z,53.33
2022-10-10T17:09:09.960Z,54.03
2022-10-10T17:12:12.535Z,53.73
2022-10-10T17:15:16.568Z,54.07
2022-10-10T17:18:19.492Z,53.99
2022-10-10T17:21:24.689Z,53.89
2022-10-10T17:24:27.241Z,54.70
2022-10-10T17:27:29.725Z,54.87
2022-10-10T17:30:33.517Z,54.20
2022-10-10T17:33:37.304Z,54.98
2022-10-10T17:36:39.781Z,56.15
2022-10-10T17:39:42.263Z,57.04
2022-10-10T17:42:44.736Z,56.69
2022-10-10T17:45:48.519Z,56.95
2022-10-10T17:48:51.020Z,57.49
2022-10-10T17:51:53.514Z,58.33
2022-10-10T17:54:55.980Z,58.42
2022-10-10T17:57:58.893Z,58.31
2022-10-10T18:01:04.613Z,58.53
2022-10-10T18:04:07.658Z,58.68
2022-10-10T18:07:10.235Z,59.48
2022-10-10T18:10:12.733Z,58.55
2022-10-10T18:13:15.268Z,58.97
2022-10-10T18:16:21.747Z,58.95
2022-10-10T18:19:24.390Z,58.67
2022-10-10T18:22:27.020Z,58.21
2022-10-10T18:25:29.511Z,57.78
2022-10-10T18:28:32.947Z,56.68
2022-10-10T18:31:38.206Z,57.36
2022-10-10T18:34:40.846Z,57.16
2022-10-10T18:37:43.329Z,56.37
2022-10-10T18:40:45.841Z,56.58
2022-10-10T18:43:49.188Z,56.54
2022-10-10T18:46:52.995Z,56.68
2022-10-10T18:49:55.467Z,56.99
2022-10-10T18:52:58.031Z,57.08
2022-10-10T18:56:01.407Z,56.47
2022-10-10T18:59:07.267Z,57.52
2022-10-10T19:02:12.052Z,57.97
2022-10-10T19:05:14.740Z,57.41
2022-10-10T19:08:17.220Z,56.84
2022-10-10T19:11:21.483Z,56.52
2022-10-10T19:14:24.083Z,56.77
2022-10-10T19:17:30.294Z,56.13
2022-10-10T19:20:33.472Z,55.95
2022-10-10T19:23:36.004Z,56.45
2022-10-10T19:26:38.483Z,55.92
2022-10-10T19:29:40.957Z,56.98
2022-10-10T19:32:44.765Z,56.90
2022-10-10T19:35:49.869Z,56.89
2022-10-10T19:38:55.583Z,56.76
2022-10-10T19:41:58.121Z,57.17
2022-10-10T19:45:00.589Z,57.17
2022-10-10T19:48:04.486Z,56.54
2022-10-10T19:51:09.009Z,55.71
2022-10-10T19:54:11.558Z,55.67
2022-10-10T19:57:14.032Z,56.61
2022-10-10T20:00:16.810Z,55.83
2022-10-10T20:03:20.672Z,56.01
2022-10-10T20:06:23.544Z,55.32
2022-10-10T20:09:27.756Z,55.92
2022-10-10T20:12:30.466Z,55.52
2022-10-10T20:15:32.945Z,56.36
2022-10-10T20:18:38.031Z,56.10
2022-10-10T20:21:40.536Z,55.74
2022-10-10T20:24:43.000Z,55.35
2022-10-10T20:27:45.527Z,54.70
2022-10-10T20:30:50.386Z,54.45
2022-10-10T20:33:57.037Z,54.32
2022-10-10T20:37:00.001Z,53.07
2022-10-10T20:40:02.554Z,53.98
2022-10-10T20:43:05.070Z,53.97
2022-10-10T20:46:09.767Z,54.10
2022-10-10T20:49:15.726Z,53.92
2022-10-10T20:52:18.199Z,54.23
2022-10-10T20:55:20.723Z,54.18
2022-10-10T20:58:23.233Z,54.31
2022-10-10T21:01:27.595Z,54.19
2022-10-10T21:04:31.499Z,54.17
2022-10-10T21:07:33.970Z,55.02
2022-10-10T21:10:39.109Z,55.42
2022-10-10T21:13:44.276Z,56.57
2022-10-10T21:16:47.686Z,57.37
2022-10-10T21:19:51.488Z,58.97
2022-10-10T21:22:55.663Z,58.70
2022-10-10T21:25:58.153Z,59.51
2022-10-10T21:29:01.670Z,60.02
2022-10-10T21:32:04.224Z,60.93
2022-10-10T21:35:09.664Z,60.87
2022-10-10T21:38:12.183Z,59.40
2022-10-10T21:41:19.096Z,59.28
2022-10-10T21:44:21.632Z,60.06
2022-10-10T21:47:24.218Z,61.63
2022-10-10T21:50:29.161Z,61.29
2022-10-10T21:53:32.171Z,60.93
2022-10-10T21:56:34.738Z,61.23
2022-10-10T21:59:37.227Z,60.99
2022-10-10T22:02:40.047Z,61.10
2022-10-10T22:05:44.801Z,59.81
2022-10-10T22:08:48.602Z,59.62
2022-10-10T22:11:51.163Z,59.42
2022-10-10T22:14:53.646Z,59.60
2022-10-10T22:17:57.004Z,59.56
2022-10-10T22:21:03.223Z,59.75
2022-10-10T22:24:08.423Z,60.47
2022-10-10T22:27:10.980Z,59.88
2022-10-10T22:30:14.657Z,59.71
2022-10-10T22:33:17.165Z,60.68
2022-10-10T22:36:21.004Z,59.81
2022-10-10T22:39:23.564Z,59.30
2022-10-10T22:42:26.053Z,60.50
2022-10-10T22:45:29.255Z,59.89
2022-10-10T22:48:31.852Z,60.49
2022-10-10T22:51:35.720Z,60.79
2022-10-10T22:54:38.210Z,59.55
2022-10-10T22:57:40.697Z,60.41
2022-10-10T23:00:43.220Z,60.25
2022-10-10T23:03:47.093Z,60.52
2022-10-10T23:06:51.317Z,61.51
2022-10-10T23:09:53.866Z,60.30
2022-10-10T23:12:56.351Z,61.82
2022-10-10T23:15:59.167Z,58.77
2022-10-10T23:19:01.708Z,58.62
2022-10-10T23:22:05.524Z,59.56
2022-10-10T23:25:08.445Z,59.53
2022-10-10T23:28:11.918Z,58.56
2022-10-10T23:31:14.946Z,58.93
2022-10-10T23:34:17.458Z,58.85
2022-10-10T23:37:21.266Z,57.91
2022-10-10T23:40:24.190Z,57.94
2022-10-10T23:43:26.800Z,57.63
2022-10-10T23:46:29.313Z,57.54
2022-10-10T23:49:31.843Z,55.61
2022-10-10T23:52:35.881Z,57.58
2022-10-10T23:55:38.438Z,58.35
2022-10-10T23:58:40.909Z,58.97
